sensor_id;sensor_type;location;lat;lon;timestamp;temperature;humidity
63445;DHT22;49573;47.682;9.170;2023-07-13T00:02:19;19.00;87.60
63445;DHT22;49573;47.682;9.170;2023-07-13T00:05:06;19.00;87.80
63445;DHT22;49573;47.682;9.170;2023-07-13T00:07:53;19.00;87.80
63445;DHT22;49573;47.682;9.170;2023-07-13T00:10:40;18.90;87.80
63445;DHT22;49573;47.682;9.170;2023-07-13T00:16:14;18.90;87.60
63445;DHT22;49573;47.682;9.170;2023-07-13T00:21:48;18.90;87.80
63445;DHT22;49573;47.682;9.170;2023-07-13T00:24:34;18.90;87.40
63445;DHT22;49573;47.682;9.170;2023-07-13T00:27:22;18.80;87.00
63445;DHT22;49573;47.682;9.170;2023-07-13T00:30:08;18.80;87.10
63445;DHT22;49573;47.682;9.170;2023-07-13T00:32:55;18.90;86.60
63445;DHT22;49573;47.682;9.170;2023-07-13T00:35:42;18.80;87.20
63445;DHT22;49573;47.682;9.170;2023-07-13T00:38:29;18.80;87.60
63445;DHT22;49573;47.682;9.170;2023-07-13T00:41:15;18.80;87.30
63445;DHT22;49573;47.682;9.170;2023-07-13T00:44:02;18.80;87.10
63445;DHT22;49573;47.682;9.170;2023-07-13T00:46:48;18.80;87.50
63445;DHT22;49573;47.682;9.170;2023-07-13T00:49:36;18.80;87.70
63445;DHT22;49573;47.682;9.170;2023-07-13T00:52:24;18.80;87.80
63445;DHT22;49573;47.682;9.170;2023-07-13T00:55:12;18.80;87.20
63445;DHT22;49573;47.682;9.170;2023-07-13T00:57:59;18.80;87.80
63445;DHT22;49573;47.682;9.170;2023-07-13T01:03:34;18.80;87.70
63445;DHT22;49573;47.682;9.170;2023-07-13T01:06:21;18.80;87.90
63445;DHT22;49573;47.682;9.170;2023-07-13T01:09:09;18.80;87.60
63445;DHT22;49573;47.682;9.170;2023-07-13T01:11:56;18.80;87.70
63445;DHT22;49573;47.682;9.170;2023-07-13T01:14:42;18.80;87.60
63445;DHT22;49573;47.682;9.170;2023-07-13T01:17:29;18.80;87.30
63445;DHT22;49573;47.682;9.170;2023-07-13T01:20:15;18.80;87.80
63445;DHT22;49573;47.682;9.170;2023-07-13T01:25:48;18.70;88.10
63445;DHT22;49573;47.682;9.170;2023-07-13T01:28:35;18.70;87.80
63445;DHT22;49573;47.682;9.170;2023-07-13T01:34:09;18.70;88.20
63445;DHT22;49573;47.682;9.170;2023-07-13T01:36:55;18.70;88.30
63445;DHT22;49573;47.682;9.170;2023-07-13T01:39:43;18.70;88.20
63445;DHT22;49573;47.682;9.170;2023-07-13T01:42:29;18.80;88.30
63445;DHT22;49573;47.682;9.170;2023-07-13T01:50:48;18.60;88.10
63445;DHT22;49573;47.682;9.170;2023-07-13T01:53:35;18.60;87.20
63445;DHT22;49573;47.682;9.170;2023-07-13T01:59:09;18.60;87.80
63445;DHT22;49573;47.682;9.170;2023-07-13T02:01:55;18.50;87.70
63445;DHT22;49573;47.682;9.170;2023-07-13T02:04:41;18.50;87.70
63445;DHT22;49573;47.682;9.170;2023-07-13T02:07:27;18.50;87.70
63445;DHT22;49573;47.682;9.170;2023-07-13T02:10:13;18.40;88.00
63445;DHT22;49573;47.682;9.170;2023-07-13T02:13:01;18.30;88.10
63445;DHT22;49573;47.682;9.170;2023-07-13T02:15:50;18.30;88.10
63445;DHT22;49573;47.682;9.170;2023-07-13T02:18:36;18.40;88.10
63445;DHT22;49573;47.682;9.170;2023-07-13T02:21:23;18.30;88.30
63445;DHT22;49573;47.682;9.170;2023-07-13T02:24:09;18.30;88.20
63445;DHT22;49573;47.682;9.170;2023-07-13T02:26:55;18.30;88.20
63445;DHT22;49573;47.682;9.170;2023-07-13T02:29:43;18.30;88.20
63445;DHT22;49573;47.682;9.170;2023-07-13T02:32:29;18.30;88.30
63445;DHT22;49573;47.682;9.170;2023-07-13T02:35:16;18.30;88.30
63445;DHT22;49573;47.682;9.170;2023-07-13T02:38:02;18.30;88.10
63445;DHT22;49573;47.682;9.170;2023-07-13T02:40:48;18.30;88.40
63445;DHT22;49573;47.682;9.170;2023-07-13T02:43:34;18.30;88.30
63445;DHT22;49573;47.682;9.170;2023-07-13T02:46:22;18.30;88.50
63445;DHT22;49573;47.682;9.170;2023-07-13T02:49:10;18.30;88.50
63445;DHT22;49573;47.682;9.170;2023-07-13T02:51:56;18.30;88.50
63445;DHT22;49573;47.682;9.170;2023-07-13T02:54:42;18.30;88.30
63445;DHT22;49573;47.682;9.170;2023-07-13T02:57:28;18.30;88.70
63445;DHT22;49573;47.682;9.170;2023-07-13T03:00:14;18.30;88.70
63445;DHT22;49573;47.682;9.170;2023-07-13T03:03:03;18.30;88.70
63445;DHT22;49573;47.682;9.170;2023-07-13T03:05:58;18.40;88.70
63445;DHT22;49573;47.682;9.170;2023-07-13T03:08:45;18.40;88.60
63445;DHT22;49573;47.682;9.170;2023-07-13T03:11:31;18.40;88.70
63445;DHT22;49573;47.682;9.170;2023-07-13T03:14:18;18.40;88.50
63445;DHT22;49573;47.682;9.170;2023-07-13T03:19:51;18.50;88.40
63445;DHT22;49573;47.682;9.170;2023-07-13T03:22:38;18.50;88.50
63445;DHT22;49573;47.682;9.170;2023-07-13T03:25:24;18.50;88.90
63445;DHT22;49573;47.682;9.170;2023-07-13T03:28:10;18.50;88.90
63445;DHT22;49573;47.682;9.170;2023-07-13T03:31:01;18.40;88.90
63445;DHT22;49573;47.682;9.170;2023-07-13T03:33:47;18.50;88.70
63445;DHT22;49573;47.682;9.170;2023-07-13T03:36:35;18.50;88.90
63445;DHT22;49573;47.682;9.170;2023-07-13T03:39:21;18.60;88.80
63445;DHT22;49573;47.682;9.170;2023-07-13T03:42:07;18.60;88.90
63445;DHT22;49573;47.682;9.170;2023-07-13T03:44:54;18.60;88.80
63445;DHT22;49573;47.682;9.170;2023-07-13T03:47:40;18.60;88.80
63445;DHT22;49573;47.682;9.170;2023-07-13T03:50:26;18.60;88.90
63445;DHT22;49573;47.682;9.170;2023-07-13T03:53:13;18.70;88.90
63445;DHT22;49573;47.682;9.170;2023-07-13T03:55:59;18.70;88.90
63445;DHT22;49573;47.682;9.170;2023-07-13T03:58:47;18.70;88.80
63445;DHT22;49573;47.682;9.170;2023-07-13T04:01:33;18.80;88.80
63445;DHT22;49573;47.682;9.170;2023-07-13T04:04:20;18.80;88.70
63445;DHT22;49573;47.682;9.170;2023-07-13T04:07:06;18.80;88.90
63445;DHT22;49573;47.682;9.170;2023-07-13T04:09:55;18.80;88.90
63445;DHT22;49573;47.682;9.170;2023-07-13T04:12:41;18.70;88.90
63445;DHT22;49573;47.682;9.170;2023-07-13T04:15:29;18.80;88.90
63445;DHT22;49573;47.682;9.170;2023-07-13T04:18:15;18.80;88.70
63445;DHT22;49573;47.682;9.170;2023-07-13T11:38:55;18.80;88.90
63445;DHT22;49573;47.682;9.170;2023-07-13T12:29:52;23.50;61.30
63445;DHT22;49573;47.682;9.170;2023-07-13T12:32:43;26.80;53.80
63445;DHT22;49573;47.682;9.170;2023-07-13T12:35:44;25.50;54.30
63445;DHT22;49573;47.682;9.170;2023-07-13T12:38:32;26.20;54.20
63445;DHT22;49573;47.682;9.170;2023-07-13T12:41:19;26.70;54.40
63445;DHT22;49573;47.682;9.170;2023-07-13T12:44:10;26.30;54.60
63445;DHT22;49573;47.682;9.170;2023-07-13T12:47:03;26.20;53.60
63445;DHT22;49573;47.682;9.170;2023-07-13T12:49:53;26.20;56.10
63445;DHT22;49573;47.682;9.170;2023-07-13T12:52:43;26.80;55.80
63445;DHT22;49573;47.682;9.170;2023-07-13T12:55:30;26.50;54.10
63445;DHT22;49573;47.682;9.170;2023-07-13T12:58:24;26.80;55.30
63445;DHT22;49573;47.682;9.170;2023-07-13T13:01:13;27.30;54.10
63445;DHT22;49573;47.682;9.170;2023-07-13T13:04:02;26.70;53.40
63445;DHT22;49573;47.682;9.170;2023-07-13T13:07:02;27.60;55.20
63445;DHT22;49573;47.682;9.170;2023-07-13T13:09:48;27.70;51.10
63445;DHT22;49573;47.682;9.170;2023-07-13T13:12:34;27.40;50.90
63445;DHT22;49573;47.682;9.170;2023-07-13T13:15:22;27.40;51.00
63445;DHT22;49573;47.682;9.170;2023-07-13T13:18:16;27.30;52.70
63445;DHT22;49573;47.682;9.170;2023-07-13T13:21:03;26.90;52.70
63445;DHT22;49573;47.682;9.170;2023-07-13T13:23:49;26.80;54.40
63445;DHT22;49573;47.682;9.170;2023-07-13T13:26:37;26.70;52.70
63445;DHT22;49573;47.682;9.170;2023-07-13T13:29:24;26.90;53.80
63445;DHT22;49573;47.682;9.170;2023-07-13T13:32:13;27.30;53.60
63445;DHT22;49573;47.682;9.170;2023-07-13T13:35:00;27.20;54.00
63445;DHT22;49573;47.682;9.170;2023-07-13T13:37:46;27.50;53.10
